Time;durP1;ratioP1;P1;durP2;ratioP2;P2;SDS_P1;SDS_P2;PMS_P1;PMS_P2;Temp;Humidity;BMP_temperature;BMP_pressure;BME280_temperature;BME280_humidity;BME280_pressure;Samples;Min_cycle;Max_cycle;Signal;HPM_P1;HPM_P2
2021/10/27 00:00:28;;;;;;;13.10;9.63;;;14.40;86.60;;;;;;5045749;28;20025;-80
2021/10/27 00:02:54;;;;;;;15.25;10.55;;;14.40;86.60;;;;;;5041629;28;20018;-80
2021/10/27 00:05:20;;;;;;;13.98;11.18;;;14.30;86.70;;;;;;5040230;28;20143;-80
2021/10/27 00:07:46;;;;;;;10.30;7.95;;;14.40;86.90;;;;;;5048027;28;20017;-80
2021/10/27 00:10:12;;;;;;;12.55;8.48;;;14.40;87.00;;;;;;5049479;28;20033;-80
2021/10/27 00:12:38;;;;;;;11.23;7.68;;;14.40;87.00;;;;;;5052626;28;20361;-80
2021/10/27 00:15:10;;;;;;;12.13;10.00;;;14.40;87.00;;;;;;5046708;28;20033;-80
2021/10/27 00:17:36;;;;;;;10.48;8.00;;;14.40;87.00;;;;;;5044551;28;20483;-80
2021/10/27 00:20:04;;;;;;;11.73;8.45;;;14.40;87.60;;;;;;5048728;28;20025;-80
2021/10/27 00:22:30;;;;;;;16.20;10.30;;;14.40;87.10;;;;;;5047670;28;20029;-80
2021/10/27 00:24:55;;;;;;;16.17;10.30;;;14.40;87.00;;;;;;5037605;28;20108;-80
2021/10/27 00:27:21;;;;;;;11.82;8.02;;;14.40;87.10;;;;;;5043387;28;20545;-80
2021/10/27 00:29:48;;;;;;;9.45;6.93;;;14.40;87.10;;;;;;5042854;28;20036;-79
2021/10/27 00:32:13;;;;;;;8.90;6.22;;;14.50;87.00;;;;;;5043653;28;20021;-80
2021/10/27 00:34:39;;;;;;;11.75;8.02;;;14.50;86.90;;;;;;5046282;28;20506;-78
2021/10/27 00:37:04;;;;;;;13.70;9.30;;;14.50;86.80;;;;;;5045628;28;20093;-78
2021/10/27 00:39:30;;;;;;;8.52;6.72;;;14.60;86.90;;;;;;5052843;28;20054;-79
2021/10/27 00:41:55;;;;;;;10.98;7.55;;;14.60;86.90;;;;;;5050309;28;20036;-78
2021/10/27 00:44:23;;;;;;;10.43;7.40;;;14.60;86.90;;;;;;5051123;28;20084;-77
2021/10/27 00:47:10;;;;;;;10.32;6.70;;;14.60;86.80;;;;;;5051781;28;20037;-78
2021/10/27 00:49:38;;;;;;;9.57;6.63;;;14.70;86.80;;;;;;5048151;28;20541;-78
2021/10/27 00:52:06;;;;;;;9.35;6.40;;;14.60;86.70;;;;;;5043268;28;20464;-79
2021/10/27 00:54:34;;;;;;;8.68;6.80;;;14.60;86.70;;;;;;5041355;28;20380;-79
2021/10/27 00:57:02;;;;;;;13.57;9.55;;;14.70;86.80;;;;;;5049390;28;20037;-79
2021/10/27 00:59:29;;;;;;;10.00;7.50;;;14.60;86.80;;;;;;5051598;28;20021;-78
2021/10/27 01:01:57;;;;;;;10.40;8.00;;;14.60;86.80;;;;;;5045370;28;20383;-79
2021/10/27 01:04:23;;;;;;;8.52;7.00;;;14.70;87.00;;;;;;5045820;28;20522;-79
2021/10/27 01:06:50;;;;;;;9.00;6.55;;;14.70;87.00;;;;;;5043584;28;20021;-78
2021/10/27 01:09:17;;;;;;;9.45;7.10;;;14.60;86.90;;;;;;5034211;28;20196;-80
2021/10/27 01:11:42;;;;;;;9.65;7.07;;;14.70;87.00;;;;;;5047267;28;20045;-80
2021/10/27 01:14:09;;;;;;;10.52;9.18;;;14.70;87.00;;;;;;5051433;28;20510;-80
2021/10/27 01:16:35;;;;;;;12.13;8.73;;;14.70;87.00;;;;;;5049935;28;20036;-81
2021/10/27 01:19:01;;;;;;;9.68;7.40;;;14.70;87.10;;;;;;5046298;28;20025;-81
2021/10/27 01:21:30;;;;;;;9.77;6.82;;;14.70;87.20;;;;;;5046452;28;20029;-82
2021/10/27 01:23:58;;;;;;;10.15;7.85;;;14.60;87.20;;;;;;5048321;28;20047;-81
2021/10/27 01:26:24;;;;;;;10.10;8.45;;;14.70;87.30;;;;;;5049126;28;20028;-81
2021/10/27 01:28:50;;;;;;;12.02;8.85;;;14.60;87.40;;;;;;5043192;28;20147;-81
2021/10/27 01:31:16;;;;;;;8.73;6.72;;;14.60;87.40;;;;;;5049450;28;20680;-81
2021/10/27 01:33:43;;;;;;;9.23;6.90;;;14.70;87.50;;;;;;5042555;28;20052;-81
2021/10/27 01:36:10;;;;;;;9.15;6.47;;;14.60;87.50;;;;;;5040171;28;20029;-81
2021/10/27 01:38:36;;;;;;;9.20;7.13;;;14.60;87.50;;;;;;5039627;28;20048;-82
2021/10/27 01:41:01;;;;;;;11.13;8.90;;;14.70;87.60;;;;;;5039188;28;20025;-80
2021/10/27 01:43:28;;;;;;;10.55;7.80;;;14.70;87.70;;;;;;5048818;28;20441;-80
2021/10/27 01:45:54;;;;;;;11.45;8.27;;;14.60;87.80;;;;;;5043336;28;20021;-80
2021/10/27 01:48:19;;;;;;;8.90;7.57;;;14.60;88.00;;;;;;5035284;28;20025;-80
2021/10/27 01:50:45;;;;;;;9.45;6.93;;;14.60;88.00;;;;;;5041418;28;20476;-79
2021/10/27 01:53:12;;;;;;;9.35;5.72;;;14.60;88.10;;;;;;5037940;28;20468;-79
2021/10/27 01:55:39;;;;;;;10.80;7.55;;;14.60;88.10;;;;;;5040786;28;20116;-79
2021/10/27 01:58:04;;;;;;;7.85;6.30;;;14.60;88.20;;;;;;5047921;28;20028;-79
2021/10/27 02:00:30;;;;;;;9.70;7.40;;;14.60;88.20;;;;;;5049501;28;20056;-78
2021/10/27 02:02:55;;;;;;;7.70;6.13;;;14.60;88.20;;;;;;5045684;28;20426;-79
2021/10/27 02:05:21;;;;;;;11.70;7.75;;;14.60;88.30;;;;;;5048850;28;20034;-78
2021/10/27 02:07:47;;;;;;;11.18;8.02;;;14.60;88.40;;;;;;5041351;28;20416;-78
2021/10/27 02:10:14;;;;;;;8.70;6.93;;;14.60;88.40;;;;;;5036989;28;20025;-79
2021/10/27 02:12:41;;;;;;;7.45;5.70;;;14.60;88.60;;;;;;5044369;28;20776;-79
2021/10/27 02:15:11;;;;;;;9.43;7.10;;;14.60;88.60;;;;;;5035099;28;20033;-79
2021/10/27 02:17:37;;;;;;;8.43;6.05;;;14.60;88.80;;;;;;5045583;28;20376;-78
2021/10/27 02:20:06;;;;;;;7.00;5.55;;;14.60;88.90;;;;;;5049259;28;20020;-78
2021/10/27 02:22:32;;;;;;;8.02;5.72;;;14.60;88.80;;;;;;5045184;28;20037;-79
2021/10/27 02:24:58;;;;;;;9.25;6.07;;;14.60;88.70;;;;;;5042092;28;20028;-79
2021/10/27 02:27:23;;;;;;;8.55;5.53;;;14.60;88.70;;;;;;5050029;28;20028;-79
2021/10/27 02:29:49;;;;;;;6.55;4.53;;;14.60;88.60;;;;;;5047865;28;20044;-79
2021/10/27 02:32:15;;;;;;;7.63;5.90;;;14.70;88.70;;;;;;5049381;28;20074;-79
2021/10/27 02:34:40;;;;;;;6.30;4.38;;;14.60;88.70;;;;;;5044037;28;20380;-79
2021/10/27 02:37:06;;;;;;;7.72;5.85;;;14.70;88.70;;;;;;5049703;28;20025;-79
2021/10/27 02:39:32;;;;;;;6.97;5.68;;;14.70;88.70;;;;;;5048296;28;20025;-79
2021/10/27 02:41:57;;;;;;;6.50;4.95;;;14.70;88.70;;;;;;5049836;28;20110;-79
2021/10/27 02:44:23;;;;;;;8.50;6.00;;;14.70;88.70;;;;;;5046369;28;20039;-79
2021/10/27 02:46:49;;;;;;;7.57;5.22;;;14.60;88.60;;;;;;5046755;28;20399;-80
2021/10/27 02:49:15;;;;;;;6.05;5.10;;;14.70;88.60;;;;;;5048175;28;20021;-80
2021/10/27 02:51:40;;;;;;;12.73;6.78;;;14.70;88.60;;;;;;5049791;28;20040;-79
2021/10/27 02:54:06;;;;;;;7.13;4.70;;;14.70;88.60;;;;;;5048730;28;20534;-80
2021/10/27 02:56:32;;;;;;;6.78;4.50;;;14.70;88.50;;;;;;5046379;28;20033;-80
2021/10/27 02:58:57;;;;;;;9.18;5.95;;;14.70;88.40;;;;;;5043901;28;20033;-79
2021/10/27 03:01:23;;;;;;;7.57;4.75;;;14.70;88.50;;;;;;5044744;28;20045;-81
2021/10/27 03:03:49;;;;;;;7.35;4.43;;;14.70;88.50;;;;;;5045018;28;20026;-80
2021/10/27 03:06:15;;;;;;;7.35;5.00;;;14.70;88.40;;;;;;5049700;28;20067;-80
2021/10/27 03:08:41;;;;;;;6.45;4.30;;;14.70;88.40;;;;;;5047083;28;20057;-81
2021/10/27 03:11:06;;;;;;;6.40;4.55;;;14.80;88.40;;;;;;5041481;28;20083;-81
2021/10/27 03:13:32;;;;;;;7.10;4.38;;;14.80;88.30;;;;;;5044978;28;20100;-82
2021/10/27 03:15:58;;;;;;;7.88;4.60;;;14.80;88.30;;;;;;5040514;28;20025;-80
2021/10/27 03:18:23;;;;;;;7.22;4.30;;;14.80;88.20;;;;;;5049700;28;20059;-82
2021/10/27 03:20:49;;;;;;;7.85;4.90;;;14.80;88.20;;;;;;5047158;28;20096;-82
2021/10/27 03:23:14;;;;;;;9.82;5.47;;;14.80;88.30;;;;;;5033969;28;20033;-81
2021/10/27 03:25:40;;;;;;;7.72;4.40;;;14.70;88.20;;;;;;5050051;28;20025;-81
2021/10/27 03:28:06;;;;;;;5.13;3.35;;;14.70;88.20;;;;;;5049898;28;20048;-81
2021/10/27 03:30:31;;;;;;;6.78;4.05;;;14.80;88.20;;;;;;5039309;28;20136;-81
2021/10/27 03:32:57;;;;;;;7.85;4.18;;;14.70;88.20;;;;;;5042270;28;20075;-81
2021/10/27 03:35:23;;;;;;;9.45;4.90;;;14.70;88.20;;;;;;5046266;28;20021;-81
2021/10/27 03:37:49;;;;;;;8.52;4.53;;;14.70;88.20;;;;;;5045472;28;20372;-81
2021/10/27 03:40:15;;;;;;;6.78;3.85;;;14.70;88.20;;;;;;5048212;28;20033;-81
2021/10/27 03:42:41;;;;;;;5.95;3.13;;;14.70;88.30;;;;;;5049932;28;20029;-81
2021/10/27 03:45:06;;;;;;;7.35;3.50;;;14.70;88.30;;;;;;5048540;28;20043;-82
2021/10/27 03:47:32;;;;;;;6.45;3.00;;;14.70;88.10;;;;;;5046506;28;20044;-81
2021/10/27 03:49:58;;;;;;;6.07;2.75;;;14.70;88.10;;;;;;5046370;28;20040;-81
2021/10/27 03:52:24;;;;;;;7.93;3.63;;;14.70;88.00;;;;;;5045553;28;20040;-81
2021/10/27 03:54:50;;;;;;;5.28;2.88;;;14.70;87.90;;;;;;5041916;28;20037;-81
2021/10/27 03:57:15;;;;;;;5.60;3.13;;;14.80;87.90;;;;;;5037347;28;20033;-82
2021/10/27 03:59:41;;;;;;;6.30;3.10;;;14.70;87.80;;;;;;5043746;28;20431;-81
2021/10/27 04:02:07;;;;;;;8.65;3.80;;;14.80;87.80;;;;;;5046418;28;20494;-82
2021/10/27 04:04:32;;;;;;;8.70;3.78;;;14.70;87.70;;;;;;5047250;28;20025;-81
2021/10/27 04:06:58;;;;;;;7.63;3.80;;;14.70;87.70;;;;;;5052248;28;20029;-81
2021/10/27 04:09:23;;;;;;;4.43;2.90;;;14.70;87.70;;;;;;5049759;28;20043;-80
2021/10/27 04:11:49;;;;;;;6.18;3.38;;;14.70;87.60;;;;;;5052313;28;20033;-81
2021/10/27 04:14:15;;;;;;;6.35;3.30;;;14.70;87.60;;;;;;5049765;28;20105;-80
2021/10/27 04:16:40;;;;;;;4.43;2.65;;;14.70;87.60;;;;;;5051623;28;20457;-80
2021/10/27 04:19:06;;;;;;;4.47;2.22;;;14.80;87.50;;;;;;5052285;28;20100;-80
2021/10/27 04:21:32;;;;;;;5.93;2.53;;;14.80;87.50;;;;;;5052841;28;20451;-81
2021/10/27 04:23:59;;;;;;;5.30;2.63;;;14.80;87.40;;;;;;5046689;28;20396;-81
2021/10/27 04:26:25;;;;;;;6.93;3.40;;;14.80;87.40;;;;;;5049855;28;20037;-80
2021/10/27 04:28:52;;;;;;;7.82;3.00;;;14.80;87.30;;;;;;5043425;28;20024;-81
2021/10/27 04:31:18;;;;;;;4.65;2.50;;;14.80;87.30;;;;;;5048491;28;20040;-80
2021/10/27 04:33:44;;;;;;;5.15;2.80;;;14.80;87.20;;;;;;5045092;28;20407;-82
2021/10/27 04:36:09;;;;;;;4.03;2.30;;;14.80;87.20;;;;;;5045234;28;20033;-81
2021/10/27 04:38:35;;;;;;;5.45;2.50;;;14.80;87.10;;;;;;5050181;28;20075;-81
2021/10/27 04:41:01;;;;;;;5.63;2.70;;;14.80;87.00;;;;;;5043680;28;20451;-79
2021/10/27 04:43:26;;;;;;;4.05;2.70;;;14.80;87.00;;;;;;5039588;28;20545;-79
2021/10/27 04:45:52;;;;;;;3.88;2.20;;;14.80;86.90;;;;;;5046341;28;20017;-79
2021/10/27 04:48:18;;;;;;;3.85;2.50;;;14.80;86.90;;;;;;5049377;28;20506;-79
2021/10/27 04:50:44;;;;;;;4.57;2.50;;;14.80;86.90;;;;;;5048938;28;20040;-79
2021/10/27 04:53:18;;;;;;;6.13;3.05;;;14.80;86.90;;;;;;5045334;28;20025;-79
2021/10/27 04:55:44;;;;;;;5.18;2.50;;;14.80;86.80;;;;;;5047698;28;20021;-78
2021/10/27 04:58:10;;;;;;;4.85;2.58;;;14.80;86.70;;;;;;5050680;28;20031;-78
2021/10/27 05:00:36;;;;;;;5.95;2.83;;;14.80;86.70;;;;;;5051959;28;20020;-79
2021/10/27 05:03:03;;;;;;;6.57;2.63;;;14.80;86.60;;;;;;5050684;28;20052;-80
2021/10/27 05:05:29;;;;;;;4.72;2.20;;;14.80;86.60;;;;;;5045231;28;20107;-80
2021/10/27 05:07:57;;;;;;;3.92;2.33;;;14.80;86.60;;;;;;5051365;28;20025;-80
2021/10/27 05:10:23;;;;;;;5.97;2.65;;;14.80;86.60;;;;;;5041679;28;20123;-80
2021/10/27 05:12:48;;;;;;;4.68;2.70;;;14.80;86.50;;;;;;5051680;28;20120;-79
2021/10/27 05:15:14;;;;;;;6.47;2.40;;;14.80;86.40;;;;;;5051746;28;20036;-80
2021/10/27 05:17:39;;;;;;;4.82;2.38;;;14.90;86.50;;;;;;5047176;28;20507;-80
2021/10/27 05:20:05;;;;;;;4.05;2.33;;;14.80;86.40;;;;;;5052086;28;20357;-80
2021/10/27 05:22:31;;;;;;;4.75;1.92;;;14.80;86.30;;;;;;5047118;28;20514;-80
2021/10/27 05:24:57;;;;;;;5.50;2.63;;;14.80;86.30;;;;;;5050494;28;20021;-79
2021/10/27 05:27:22;;;;;;;6.18;2.67;;;14.80;86.30;;;;;;5048256;28;20021;-80
2021/10/27 05:29:48;;;;;;;5.40;2.80;;;14.80;86.30;;;;;;5051070;28;20376;-80
2021/10/27 05:32:14;;;;;;;3.22;2.00;;;14.80;86.30;;;;;;5048756;28;20052;-80
2021/10/27 05:34:42;;;;;;;6.10;2.60;;;14.80;86.40;;;;;;5051212;28;20499;-81
2021/10/27 05:37:08;;;;;;;6.20;2.50;;;14.80;86.30;;;;;;5049357;28;20108;-80
2021/10/27 05:39:34;;;;;;;4.90;2.53;;;14.80;86.30;;;;;;5052964;28;20147;-81
2021/10/27 05:42:00;;;;;;;3.88;2.08;;;14.80;86.20;;;;;;5045690;28;20632;-80
2021/10/27 05:44:26;;;;;;;6.07;2.75;;;14.80;86.10;;;;;;5051085;28;20031;-80
2021/10/27 05:46:52;;;;;;;5.95;2.70;;;14.80;86.10;;;;;;5045163;28;20408;-80
2021/10/27 05:49:30;;;;;;;3.88;2.30;;;14.80;86.10;;;;;;5050659;28;20028;-80
2021/10/27 05:55:02;;;;;;;4.93;2.42;;;14.80;86.10;;;;;;5045193;28;20033;-80
2021/10/27 05:57:39;;;;;;;4.53;2.30;;;14.80;86.10;;;;;;5044131;28;20032;-79
2021/10/27 06:00:07;;;;;;;7.20;2.70;;;14.80;86.10;;;;;;5049029;28;20052;-79
2021/10/27 06:02:33;;;;;;;4.82;2.40;;;14.80;86.00;;;;;;5061310;28;20013;-79
2021/10/27 06:04:58;;;;;;;3.38;2.17;;;14.80;86.10;;;;;;5051076;28;20032;-79
2021/10/27 06:07:24;;;;;;;5.45;2.72;;;14.80;86.10;;;;;;5050358;28;20027;-79
2021/10/27 06:09:50;;;;;;;5.03;2.60;;;14.80;86.00;;;;;;5050458;28;20033;-79
2021/10/27 06:12:18;;;;;;;6.80;2.90;;;14.80;85.90;;;;;;5049374;28;20051;-79
2021/10/27 06:14:45;;;;;;;7.40;3.10;;;14.80;86.00;;;;;;5041592;28;20041;-80
2021/10/27 06:17:10;;;;;;;4.20;2.00;;;14.80;85.90;;;;;;5046871;28;20098;-79
2021/10/27 06:19:36;;;;;;;3.13;2.17;;;14.80;85.90;;;;;;5046912;28;20036;-78
2021/10/27 06:22:02;;;;;;;5.88;2.60;;;14.80;85.90;;;;;;5049642;28;20082;-78
2021/10/27 06:24:29;;;;;;;5.78;2.97;;;14.80;85.80;;;;;;5045773;28;20029;-79
2021/10/27 06:26:57;;;;;;;8.02;3.88;;;14.70;85.80;;;;;;5049361;28;20028;-79
2021/10/27 06:29:28;;;;;;;7.30;3.20;;;14.70;85.80;;;;;;5058963;28;20020;-79
2021/10/27 06:32:09;;;;;;;4.78;2.63;;;14.70;85.80;;;;;;5050735;28;20495;-80
2021/10/27 06:34:40;;;;;;;6.47;2.75;;;14.70;85.90;;;;;;5045238;28;20112;-78
2021/10/27 06:48:02;;;;;;;6.55;3.00;;;14.70;85.90;;;;;;5035828;28;20036;-76
2021/10/27 06:50:27;;;;;;;6.90;2.53;;;14.60;85.90;;;;;;5046847;28;20399;-77
2021/10/27 06:52:53;;;;;;;7.15;3.33;;;14.70;86.00;;;;;;5040679;28;20028;-76
2021/10/27 06:55:19;;;;;;;3.75;2.38;;;14.70;85.90;;;;;;5038484;28;20395;-76
2021/10/27 06:57:44;;;;;;;8.05;2.97;;;14.70;85.90;;;;;;5044743;28;20021;-75
2021/10/27 07:00:58;;;;;;;5.60;3.05;;;14.70;85.80;;;;;;5045096;28;20060;-76
2021/10/27 07:16:25;;;;;;;5.18;2.83;;;14.60;85.60;;;;;;5049951;28;20032;-78
2021/10/27 07:18:51;;;;;;;6.22;3.30;;;14.70;85.70;;;;;;5042411;28;20021;-78
2021/10/27 07:21:16;;;;;;;6.45;3.40;;;14.70;85.60;;;;;;5036918;28;20440;-76
2021/10/27 07:23:42;;;;;;;6.18;3.67;;;14.60;85.60;;;;;;5042762;28;20017;-77
2021/10/27 07:26:08;;;;;;;5.40;3.20;;;14.60;85.40;;;;;;5038287;28;20025;-77
2021/10/27 07:28:34;;;;;;;5.50;3.45;;;14.70;85.50;;;;;;5033952;28;20030;-79
2021/10/27 07:31:01;;;;;;;8.25;3.50;;;14.60;85.40;;;;;;5038984;28;20191;-77
2021/10/27 07:33:28;;;;;;;4.55;2.83;;;14.70;85.40;;;;;;5039143;28;20024;-79
2021/10/27 07:41:06;;;;;;;4.28;2.67;;;14.70;85.40;;;;;;5040867;28;20040;-76
2021/10/27 07:43:32;;;;;;;9.02;4.22;;;14.70;85.30;;;;;;5040687;28;20033;-75
2021/10/27 07:46:00;;;;;;;8.43;4.70;;;14.70;85.30;;;;;;5036485;28;20017;-76
2021/10/27 07:48:27;;;;;;;6.20;3.20;;;14.70;85.20;;;;;;5049008;28;20029;-75
2021/10/27 07:50:53;;;;;;;7.28;4.20;;;14.70;85.30;;;;;;5050526;28;20484;-77
2021/10/27 07:53:19;;;;;;;8.25;4.13;;;14.70;85.30;;;;;;5052997;28;20036;-76
2021/10/27 07:55:49;;;;;;;8.30;4.25;;;14.70;85.30;;;;;;5052204;28;20032;-75
2021/10/27 07:58:15;;;;;;;5.90;3.30;;;14.70;85.20;;;;;;5039166;28;20108;-76
2021/10/27 08:00:41;;;;;;;6.07;3.65;;;14.70;85.10;;;;;;5043296;28;20085;-77
2021/10/27 08:03:07;;;;;;;6.15;3.08;;;14.80;85.10;;;;;;5048942;28;20025;-77
2021/10/27 08:05:38;;;;;;;6.50;4.13;;;14.80;85.10;;;;;;5044220;28;20096;-82
2021/10/27 08:08:05;;;;;;;6.22;4.03;;;14.80;85.00;;;;;;5049084;28;20091;-81
2021/10/27 08:10:31;;;;;;;10.82;5.90;;;14.80;84.90;;;;;;5053246;28;20120;-87
2021/10/27 08:12:58;;;;;;;11.60;6.57;;;14.80;84.80;;;;;;5045429;28;20079;-93
2021/10/27 08:15:24;;;;;;;10.18;5.15;;;14.70;84.80;;;;;;5051477;28;20446;-92
2021/10/27 08:17:49;;;;;;;8.07;3.78;;;14.70;84.80;;;;;;5051461;28;20021;-93
2021/10/27 08:20:17;;;;;;;9.40;4.53;;;14.70;84.90;;;;;;5054635;28;20487;-93
2021/10/27 08:22:45;;;;;;;9.40;4.95;;;14.80;84.90;;;;;;5058053;28;20013;-89
2021/10/27 08:25:20;;;;;;;7.85;5.00;;;14.70;84.70;;;;;;5045753;28;20013;-92
2021/10/27 08:27:46;;;;;;;9.52;5.25;;;14.80;84.80;;;;;;5051147;28;20116;-92
2021/10/27 08:30:13;;;;;;;9.07;5.60;;;14.70;84.60;;;;;;5053633;28;20423;-88
2021/10/27 08:35:10;;;;;;;9.60;6.07;;;14.70;84.60;;;;;;5057514;28;20427;-93
2021/10/27 08:37:46;;;;;;;7.75;5.20;;;14.70;84.60;;;;;;5059773;28;20112;-93
2021/10/27 08:40:12;;;;;;;7.47;4.60;;;14.70;84.70;;;;;;5045195;28;20200;-90
2021/10/27 08:42:40;;;;;;;9.90;5.72;;;14.70;84.80;;;;;;5056314;28;20096;-91
2021/10/27 08:45:06;;;;;;;10.55;6.00;;;14.70;84.80;;;;;;5052328;28;20025;-92
2021/10/27 08:47:34;;;;;;;10.35;6.32;;;14.60;84.90;;;;;;5058534;28;20119;-88
2021/10/27 08:50:00;;;;;;;9.00;4.93;;;14.60;85.00;;;;;;5054067;28;20029;-87
2021/10/27 08:52:26;;;;;;;7.07;4.13;;;14.60;85.10;;;;;;5047686;28;20043;-87
2021/10/27 08:54:52;;;;;;;10.05;5.07;;;14.70;85.10;;;;;;5060762;28;20033;-89
2021/10/27 08:57:19;;;;;;;6.75;3.53;;;14.70;85.10;;;;;;5054026;28;20026;-89
2021/10/27 09:00:06;;;;;;;6.32;4.38;;;14.70;85.00;;;;;;5053950;28;20025;-92
2021/10/27 09:02:47;;;;;;;8.98;5.43;;;14.80;85.00;;;;;;5056343;28;20029;-90
2021/10/27 09:05:50;;;;;;;6.32;4.40;;;14.80;85.00;;;;;;5044065;28;20021;-84
2021/10/27 09:33:40;;;;;;;9.20;5.93;;;14.80;84.90;;;;;;5046111;28;20167;-85
2021/10/27 09:33:58;;;;;;;7.50;4.80;;;15.00;84.40;;;;;;5042704;28;20048;-84
2021/10/27 09:42:35;;;;;;;6.20;5.00;;;15.30;84.20;;;;;;5051808;28;20039;-83
2021/10/27 09:55:27;;;;;;;9.43;6.15;;;15.60;83.80;;;;;;5039578;28;20059;-84
2021/10/27 09:56:39;;;;;;;9.25;6.00;;;15.50;83.10;;;;;;5064439;28;20125;-86
2021/10/27 10:04:03;;;;;;;7.35;5.15;;;15.60;83.00;;;;;;5037677;28;20467;-83
2021/10/27 10:04:42;;;;;;;7.43;4.90;;;15.70;83.00;;;;;;5035421;28;20043;-89
2021/10/27 10:07:18;;;;;;;9.18;5.60;;;15.90;82.90;;;;;;5045399;28;20044;-87
2021/10/27 10:10:29;;;;;;;8.45;4.75;;;15.90;82.50;;;;;;5045844;28;20031;-81
2021/10/27 10:13:15;;;;;;;5.88;4.25;;;16.00;82.40;;;;;;5046012;28;20031;-85
2021/10/27 10:15:40;;;;;;;3.67;2.97;;;16.10;82.30;;;;;;5044464;28;20072;-85
2021/10/27 10:18:09;;;;;;;8.00;6.22;;;16.20;82.10;;;;;;5040617;28;20465;-89
2021/10/27 10:20:36;;;;;;;6.60;5.50;;;16.30;81.70;;;;;;5043467;28;20388;-89
2021/10/27 10:23:21;;;;;;;6.43;4.63;;;16.30;81.40;;;;;;5042800;28;20021;-89
2021/10/27 10:25:52;;;;;;;6.75;4.95;;;16.30;81.30;;;;;;5049291;28;20074;-89
2021/10/27 10:28:21;;;;;;;8.98;5.60;;;16.30;81.10;;;;;;5049508;28;20672;-88
2021/10/27 10:30:54;;;;;;;9.45;5.05;;;16.30;81.10;;;;;;5050427;28;20033;-90
2021/10/27 10:33:20;;;;;;;;;;;16.40;81.00;;;;;;5043549;28;20021;-84
2021/10/27 10:41:51;;;;;;;7.82;5.18;;;16.50;80.70;;;;;;5043113;28;20553;-82
2021/10/27 10:44:39;;;;;;;7.43;4.90;;;16.60;80.40;;;;;;5054136;28;20017;-80
2021/10/27 10:56:20;;;;;;;6.55;3.90;;;16.70;79.40;;;;;;5041013;28;20056;-87
2021/10/27 10:59:23;;;;;;;5.35;3.78;;;16.70;79.30;;;;;;5044799;28;20400;-83
2021/10/27 11:40:12;;;;;;;6.97;3.88;;;17.00;77.40;;;;;;5044314;28;20044;-83
2021/10/27 11:42:48;;;;;;;5.53;3.90;;;17.00;78.00;;;;;;5055437;28;20024;-84
2021/10/27 11:45:36;;;;;;;4.88;3.03;;;17.00;77.40;;;;;;5046263;28;20490;-85
2021/10/27 11:48:54;;;;;;;6.13;3.22;;;17.00;77.40;;;;;;5044950;28;20468;-83
2021/10/27 11:50:52;;;;;;;7.63;4.55;;;17.00;77.40;;;;;;5051778;28;20126;-84
2021/10/27 11:53:30;;;;;;;3.80;3.25;;;16.90;77.40;;;;;;5049367;28;20575;-81
2021/10/27 11:55:56;;;;;;;6.57;4.28;;;16.90;77.50;;;;;;5048350;28;20032;-83
2021/10/27 11:58:37;;;;;;;6.18;4.20;;;16.90;77.50;;;;;;5042949;28;20021;-86
2021/10/27 12:01:03;;;;;;;4.18;2.80;;;16.80;77.40;;;;;;5041194;28;20021;-87
2021/10/27 12:03:37;;;;;;;6.20;4.10;;;16.90;77.60;;;;;;5047041;28;20435;-84
2021/10/27 12:06:12;;;;;;;5.93;3.42;;;16.80;77.50;;;;;;5044688;28;20543;-82
2021/10/27 12:19:07;;;;;;;6.22;3.70;;;17.00;77.20;;;;;;5050705;28;20467;-82
2021/10/27 12:21:34;;;;;;;6.47;3.87;;;17.00;76.90;;;;;;5046977;28;20028;-83
2021/10/27 12:24:02;;;;;;;5.47;3.72;;;17.00;76.80;;;;;;5044062;28;20335;-82
2021/10/27 12:26:42;;;;;;;5.60;3.30;;;17.10;76.60;;;;;;5051875;28;20010;-89
2021/10/27 12:29:16;;;;;;;4.18;3.50;;;17.10;76.70;;;;;;5048998;28;20387;-83
2021/10/27 12:31:43;;;;;;;5.32;2.88;;;17.10;76.50;;;;;;5048967;28;20032;-84
2021/10/27 12:34:27;;;;;;;4.00;3.00;;;17.20;76.50;;;;;;5040513;28;20031;-83
2021/10/27 12:36:58;;;;;;;5.05;3.50;;;17.20;76.50;;;;;;5047387;28;20057;-83
2021/10/27 12:39:36;;;;;;;9.27;5.20;;;17.20;76.50;;;;;;5044805;28;20473;-81
2021/10/27 12:42:07;;;;;;;6.78;4.57;;;17.20;75.80;;;;;;5062529;28;20048;-83
2021/10/27 12:44:43;;;;;;;6.18;4.20;;;17.20;75.90;;;;;;5049520;28;20060;-86
2021/10/27 12:47:12;;;;;;;6.40;4.05;;;17.20;76.00;;;;;;5050782;28;20114;-87
2021/10/27 12:49:40;;;;;;;4.80;3.50;;;17.20;75.90;;;;;;5052517;28;20020;-86
2021/10/27 12:52:27;;;;;;;5.80;4.40;;;17.20;75.90;;;;;;5049072;28;20033;-85
2021/10/27 12:55:19;;;;;;;6.05;3.85;;;17.20;75.70;;;;;;5048341;28;20032;-84
2021/10/27 12:57:53;;;;;;;5.57;3.67;;;17.30;75.50;;;;;;5047479;28;20032;-85
2021/10/27 13:00:28;;;;;;;6.00;4.05;;;17.30;75.50;;;;;;5043381;28;20061;-85
2021/10/27 13:06:26;;;;;;;6.40;3.47;;;17.30;75.20;;;;;;5042443;28;20040;-85
2021/10/27 13:11:44;;;;;;;7.32;4.47;;;17.30;75.30;;;;;;5053749;28;20309;-88
2021/10/27 13:14:28;;;;;;;6.10;4.22;;;17.30;75.30;;;;;;5057223;28;20024;-87
2021/10/27 13:17:47;;;;;;;5.43;3.47;;;17.30;75.40;;;;;;5079994;28;20746;-88
2021/10/27 13:19:57;;;;;;;5.03;3.45;;;17.30;75.50;;;;;;5067970;28;20070;-90
2021/10/27 13:30:30;;;;;;;6.28;4.20;;;17.40;75.30;;;;;;5053667;28;20048;-84
2021/10/27 13:32:57;;;;;;;6.25;4.40;;;17.30;75.00;;;;;;5049830;28;20111;-83
2021/10/27 13:35:24;;;;;;;5.65;3.10;;;17.30;75.00;;;;;;5051159;28;20020;-83
2021/10/27 13:37:50;;;;;;;4.75;2.97;;;17.30;75.20;;;;;;5053469;28;20013;-89
2021/10/27 13:40:16;;;;;;;3.90;3.33;;;17.30;75.20;;;;;;5048207;28;20357;-84
2021/10/27 13:42:49;;;;;;;6.75;3.70;;;17.40;75.20;;;;;;5052095;28;20032;-83
2021/10/27 13:45:36;;;;;;;5.00;3.30;;;17.50;74.90;;;;;;5062885;28;20391;-80
2021/10/27 13:58:54;;;;;;;6.72;3.30;;;17.30;73.90;;;;;;5051598;28;20040;-80
2021/10/27 14:06:53;;;;;;;3.97;3.58;;;17.40;73.30;;;;;;5043325;28;20650;-80
2021/10/27 14:09:28;;;;;;;4.93;3.67;;;17.40;73.00;;;;;;5050646;28;20032;-80
2021/10/27 14:12:03;;;;;;;7.53;4.10;;;17.40;72.80;;;;;;5051895;28;20086;-79
2021/10/27 14:47:49;;;;;;;4.88;3.10;;;17.20;72.90;;;;;;5050170;28;20035;-81
2021/10/27 15:20:21;;;;;;;5.25;3.30;;;16.70;74.20;;;;;;5047982;28;20103;-81
2021/10/27 15:23:00;;;;;;;3.30;2.80;;;16.70;74.20;;;;;;5041461;28;20523;-79
2021/10/27 15:35:55;;;;;;;8.63;3.00;;;16.50;74.90;;;;;;5055144;28;20028;-81
2021/10/27 15:41:22;;;;;;;5.30;2.92;;;16.40;75.10;;;;;;5044358;28;20456;-82
2021/10/27 15:52:07;;;;;;;4.60;3.10;;;16.30;75.80;;;;;;5054486;28;20418;-90
2021/10/27 15:54:32;;;;;;;4.80;2.53;;;16.20;75.80;;;;;;5054647;28;20021;-87
2021/10/27 15:56:59;;;;;;;4.93;2.53;;;16.20;76.00;;;;;;5059104;28;20047;-90
2021/10/27 15:59:25;;;;;;;5.50;2.92;;;16.20;76.20;;;;;;5055195;28;20380;-83
2021/10/27 16:01:52;;;;;;;6.22;3.58;;;16.10;76.30;;;;;;5054416;28;20036;-84
2021/10/27 16:04:18;;;;;;;4.65;2.55;;;16.10;76.50;;;;;;5055849;28;20053;-86
2021/10/27 16:06:50;;;;;;;6.47;2.60;;;16.10;76.60;;;;;;5058476;28;20032;-83
2021/10/27 16:09:16;;;;;;;5.22;2.80;;;16.10;76.70;;;;;;5053474;28;20021;-82
2021/10/27 16:11:42;;;;;;;7.28;3.45;;;16.00;76.80;;;;;;5054612;28;20033;-82
2021/10/27 16:14:08;;;;;;;6.22;3.13;;;16.00;76.90;;;;;;5054572;28;20032;-81
2021/10/27 16:16:34;;;;;;;4.32;2.35;;;15.90;77.10;;;;;;5052621;28;20049;-82
2021/10/27 16:19:00;;;;;;;4.70;3.17;;;15.90;77.10;;;;;;5046571;28;20027;-82
2021/10/27 16:21:27;;;;;;;5.20;3.05;;;15.80;77.20;;;;;;5050977;28;20079;-82
2021/10/27 16:23:52;;;;;;;4.72;2.60;;;15.80;77.40;;;;;;5047848;28;20475;-83
2021/10/27 16:26:21;;;;;;;5.22;2.72;;;15.80;77.50;;;;;;5054242;28;20060;-82
2021/10/27 16:28:46;;;;;;;6.43;3.40;;;15.80;77.60;;;;;;5057753;28;20005;-82
2021/10/27 16:31:12;;;;;;;5.75;2.65;;;15.70;77.70;;;;;;5073219;28;20100;-82
2021/10/27 16:33:39;;;;;;;4.93;2.70;;;15.70;77.80;;;;;;5056108;28;20848;-82
2021/10/27 16:36:06;;;;;;;5.32;2.67;;;15.70;78.00;;;;;;5034353;28;21508;-83
2021/10/27 16:38:31;;;;;;;5.03;2.83;;;15.60;78.10;;;;;;5040124;28;20431;-86
2021/10/27 16:40:58;;;;;;;5.50;2.33;;;15.60;78.10;;;;;;5054999;28;20029;-89
2021/10/27 16:43:24;;;;;;;3.72;1.95;;;15.60;78.30;;;;;;5060802;28;20094;-85
2021/10/27 16:45:51;;;;;;;3.92;2.38;;;15.50;78.40;;;;;;5054004;28;20029;-88
2021/10/27 16:48:17;;;;;;;5.18;2.50;;;15.50;78.40;;;;;;5045750;28;20022;-85
2021/10/27 16:50:43;;;;;;;5.20;2.75;;;15.50;78.50;;;;;;5039355;28;20086;-84
2021/10/27 16:53:08;;;;;;;4.43;2.70;;;15.50;78.60;;;;;;5042676;28;20024;-84
2021/10/27 16:55:34;;;;;;;5.50;3.20;;;15.40;78.60;;;;;;5039153;28;20029;-82
2021/10/27 16:58:01;;;;;;;4.22;2.00;;;15.40;78.70;;;;;;5047355;28;20381;-82
2021/10/27 17:00:29;;;;;;;4.63;2.60;;;15.40;78.80;;;;;;5053613;28;20055;-82
2021/10/27 17:02:55;;;;;;;5.70;3.00;;;15.40;78.90;;;;;;5055450;28;20236;-83
2021/10/27 17:05:21;;;;;;;4.05;2.40;;;15.40;79.00;;;;;;5055140;28;20044;-82
2021/10/27 17:07:47;;;;;;;3.53;2.13;;;15.30;79.00;;;;;;5052339;28;20035;-82